Time;durP1;ratioP1;P1;durP2;ratioP2;P2;SDS_P1;SDS_P2;PMS_P1;PMS_P2;Temp;Humidity;BMP_temperature;BMP_pressure;BME280_temperature;BME280_humidity;BME280_pressure;Samples;Min_cycle;Max_cycle;Signal;HPM_P1;HPM_P2
2022/03/17 00:01:55;;;;;;;1.40;1.30;;;12.30;99.90;11.90;101700.00;;;;5034172;28;20740;-71
2022/03/17 00:04:22;;;;;;;1.80;1.70;;;12.30;99.90;12.00;101665.00;;;;5034481;28;20182;-71
2022/03/17 00:06:50;;;;;;;1.10;1.10;;;12.30;99.90;11.70;101701.00;;;;5050567;28;20175;-71
2022/03/17 00:09:16;;;;;;;1.10;1.10;;;12.30;99.90;12.30;101697.00;;;;5051053;28;20278;-68
2022/03/17 00:11:42;;;;;;;0.30;0.30;;;12.50;99.90;12.30;101703.00;;;;5035667;28;20202;-70
2022/03/17 00:14:08;;;;;;;1.07;1.07;;;12.50;99.90;12.50;101676.00;;;;5035984;28;20257;-68
2022/03/17 00:16:34;;;;;;;3.20;1.50;;;12.60;99.90;12.10;101706.00;;;;5050757;28;20272;-70
2022/03/17 00:19:05;;;;;;;0.30;0.30;;;12.60;99.90;12.50;101708.00;;;;5034309;28;20190;-69
2022/03/17 00:21:31;;;;;;;1.23;1.23;;;12.60;99.90;12.90;101700.00;;;;5035142;28;20764;-70
2022/03/17 00:23:57;;;;;;;0.20;0.20;;;12.80;99.90;12.40;101673.00;;;;5035271;28;20185;-69
2022/03/17 00:26:22;;;;;;;0.90;0.90;;;12.80;99.90;12.40;101706.00;;;;5050616;28;20264;-70
2022/03/17 00:28:48;;;;;;;2.00;2.00;;;12.80;99.90;12.50;101716.00;;;;5050810;28;20181;-69
2022/03/17 00:31:17;;;;;;;0.37;0.37;;;12.80;99.90;12.80;101684.00;;;;5050239;28;20217;-70
2022/03/17 00:33:43;;;;;;;9.60;8.37;;;12.90;99.90;12.70;101715.00;;;;5050058;28;20637;-70
2022/03/17 00:36:09;;;;;;;2.90;2.70;;;12.90;99.90;12.20;101724.00;;;;5050200;28;20175;-70
2022/03/17 00:38:35;;;;;;;4.53;2.57;;;12.70;99.90;12.50;101732.00;;;;5050823;28;20182;-70
2022/03/17 00:41:01;;;;;;;3.93;3.67;;;12.70;99.90;12.40;101743.00;;;;5050790;28;20189;-69
2022/03/17 00:43:27;;;;;;;2.17;1.63;;;12.70;99.90;12.50;101698.00;;;;5035054;28;20181;-70
2022/03/17 00:45:53;;;;;;;8.53;3.27;;;12.70;99.90;12.00;101695.00;;;;5033835;28;20194;-70
2022/03/17 00:48:19;;;;;;;7.93;5.97;;;12.60;99.90;11.90;101752.00;;;;5050172;28;20681;-71
2022/03/17 00:50:44;;;;;;;7.70;6.00;;;12.50;99.90;11.70;101763.00;;;;5034699;28;20189;-70
2022/03/17 00:53:15;;;;;;;6.07;4.43;;;12.40;99.90;11.90;101765.00;;;;5034839;28;20201;-70
2022/03/17 00:55:41;;;;;;;8.10;5.60;;;12.40;99.90;11.70;101759.00;;;;5049099;28;20185;-70
2022/03/17 00:58:08;;;;;;;2.93;2.57;;;12.30;99.90;11.80;101779.00;;;;5049837;28;20183;-71
2022/03/17 01:00:39;;;;;;;22.57;11.67;;;12.30;99.90;11.90;101783.00;;;;5049975;28;20180;-70
2022/03/17 01:03:08;;;;;;;6.37;4.40;;;12.40;99.90;11.90;101789.00;;;;5049540;28;20184;-70
2022/03/17 01:05:35;;;;;;;19.40;12.40;;;12.40;99.90;12.00;101796.00;;;;5049992;28;20263;-70
2022/03/17 01:08:01;;;;;;;9.80;7.73;;;12.50;99.90;11.70;101784.00;;;;5049893;28;20180;-70
2022/03/17 01:10:27;;;;;;;17.20;10.03;;;12.30;99.90;11.90;101796.00;;;;5050085;28;20624;-70
2022/03/17 01:12:53;;;;;;;8.53;5.00;;;12.30;99.90;11.70;101810.00;;;;5049599;28;20225;-70
2022/03/17 01:15:21;;;;;;;6.63;4.27;;;12.30;99.90;12.00;101816.00;;;;5033151;28;20664;-70
2022/03/17 01:17:47;;;;;;;17.97;12.03;;;12.40;99.90;11.20;101830.00;;;;5049830;28;20681;-70
2022/03/17 01:20:18;;;;;;;9.53;8.03;;;12.00;99.90;11.20;101772.00;;;;5049558;28;20531;-70
2022/03/17 01:22:47;;;;;;;15.10;11.37;;;11.70;99.90;11.50;101839.00;;;;5032916;28;20553;-70
2022/03/17 01:25:14;;;;;;;2.63;2.47;;;11.90;99.90;11.40;101824.00;;;;5034190;28;20196;-70
2022/03/17 01:27:40;;;;;;;4.67;3.60;;;11.80;99.90;11.20;101847.00;;;;5049400;28;20178;-69
2022/03/17 01:30:09;;;;;;;2.70;2.50;;;11.60;99.90;11.00;101859.00;;;;5049489;28;20185;-70
2022/03/17 01:32:37;;;;;;;0.70;0.70;;;11.50;99.90;11.20;101845.00;;;;5049016;28;20210;-71
2022/03/17 01:35:07;;;;;;;2.40;2.20;;;11.50;99.90;11.10;101859.00;;;;5049327;28;20610;-71
2022/03/17 01:37:34;;;;;;;4.27;3.77;;;11.50;99.90;10.90;101870.00;;;;5032759;28;20704;-70
2022/03/17 01:40:07;;;;;;;8.80;7.97;;;11.30;99.90;10.70;101854.00;;;;5032528;28;20194;-71
2022/03/17 01:42:34;;;;;;;2.97;2.77;;;11.20;99.90;10.30;101869.00;;;;5032387;28;20189;-70
2022/03/17 01:45:02;;;;;;;4.10;3.70;;;10.90;99.90;10.00;101879.00;;;;5049278;28;20216;-71
2022/03/17 01:47:28;;;;;;;6.73;4.17;;;10.70;99.90;10.10;101840.00;;;;5048753;28;20177;-71
2022/03/17 01:50:07;;;;;;;4.97;4.00;;;10.60;99.90;9.90;101899.00;;;;5049244;28;20193;-70
2022/03/17 01:52:34;;;;;;;1.90;1.53;;;10.50;99.90;10.10;101860.00;;;;5032404;28;20258;-70
2022/03/17 01:55:03;;;;;;;2.17;2.07;;;10.50;99.90;10.10;101915.00;;;;5032448;28;20187;-71
2022/03/17 01:57:30;;;;;;;2.70;2.50;;;10.40;99.90;10.00;101915.00;;;;5032239;28;20272;-71
2022/03/17 01:59:56;;;;;;;2.40;2.30;;;10.40;99.90;9.70;101884.00;;;;5049034;28;20196;-71
2022/03/17 02:02:24;;;;;;;0.60;0.60;;;10.20;99.90;10.00;101922.00;;;;5048704;28;20222;-71
2022/03/17 02:04:50;;;;;;;4.00;3.70;;;10.30;99.90;9.80;101926.00;;;;5032439;28;20197;-70
2022/03/17 02:07:16;;;;;;;2.97;2.20;;;10.30;99.90;9.80;101923.00;;;;5032259;28;20209;-71
2022/03/17 02:09:44;;;;;;;3.27;2.97;;;10.20;99.90;9.80;101934.00;;;;5049207;28;20162;-71
2022/03/17 02:15:16;;;;;;;5.43;2.50;;;10.30;99.90;10.00;101929.00;;;;5046390;28;20199;-71
2022/03/17 02:17:43;;;;;;;2.67;2.47;;;10.30;99.90;9.80;101937.00;;;;5033152;28;20194;-71
2022/03/17 02:20:13;;;;;;;0.50;0.50;;;10.20;99.90;9.90;101945.00;;;;5048345;28;20188;-71
2022/03/17 02:22:46;;;;;;;1.90;1.80;;;10.20;99.90;10.10;101935.00;;;;5048841;28;20274;-71
2022/03/17 02:27:59;;;;;;;2.30;2.10;;;10.20;99.90;9.50;101953.00;;;;5046562;28;20195;-71
2022/03/17 02:30:25;;;;;;;4.20;3.40;;;10.20;99.90;9.60;101908.00;;;;5031773;28;20569;-71
2022/03/17 02:33:03;;;;;;;0.87;0.83;;;10.10;99.90;9.50;101958.00;;;;5033032;28;20295;-71
2022/03/17 02:35:29;;;;;;;0.77;0.77;;;10.10;99.90;9.80;101963.00;;;;5031960;28;20185;-71
2022/03/17 02:37:58;;;;;;;0.37;0.37;;;10.10;99.90;9.60;101926.00;;;;5048560;28;20319;-71
2022/03/17 02:40:25;;;;;;;1.83;1.73;;;10.10;99.90;10.00;101962.00;;;;5048282;28;20174;-71
2022/03/17 02:42:52;;;;;;;0.40;0.40;;;10.30;99.90;9.90;101966.00;;;;5048411;28;20191;-71
2022/03/17 02:45:18;;;;;;;4.13;1.80;;;10.20;99.90;9.70;101928.00;;;;5048033;28;20177;-70
2022/03/17 02:47:48;;;;;;;1.97;1.57;;;10.20;99.90;9.60;101984.00;;;;5048681;28;20547;-70
2022/03/17 02:50:14;;;;;;;1.33;1.23;;;10.10;99.90;9.60;101995.00;;;;5031699;28;20190;-71
2022/03/17 02:52:41;;;;;;;0.83;0.83;;;10.10;99.90;9.80;102004.00;;;;5031873;28;20208;-70
2022/03/17 02:55:12;;;;;;;0.63;0.63;;;10.10;99.90;9.60;102020.00;;;;5048277;28;20535;-71
2022/03/17 02:57:46;;;;;;;1.97;1.70;;;10.10;99.90;9.60;102029.00;;;;5031845;28;20177;-71
2022/03/17 03:00:14;;;;;;;2.20;2.03;;;10.00;99.90;10.10;102011.00;;;;5032703;28;20275;-71
2022/03/17 03:02:41;;;;;;;1.20;1.17;;;10.20;99.90;9.90;102016.00;;;;5048485;28;20188;-71
2022/03/17 03:05:08;;;;;;;1.23;0.77;;;10.20;99.90;10.00;102026.00;;;;5048602;28;20176;-71
2022/03/17 03:07:34;;;;;;;1.63;0.77;;;10.20;99.90;10.00;102026.00;;;;5048436;28;20234;-72
2022/03/17 03:10:01;;;;;;;0.70;0.60;;;10.30;99.90;10.00;101987.00;;;;5048069;28;20573;-72
2022/03/17 03:12:27;;;;;;;2.27;2.17;;;10.30;99.90;9.90;101990.00;;;;5048562;28;20218;-71
2022/03/17 03:14:52;;;;;;;2.33;2.20;;;10.30;99.90;10.00;102018.00;;;;5031438;28;20185;-71
2022/03/17 03:17:20;;;;;;;3.63;3.07;;;10.30;99.90;9.90;102049.00;;;;5032898;28;20266;-71
2022/03/17 03:19:48;;;;;;;1.53;1.43;;;10.20;99.90;9.70;102040.00;;;;5051096;28;20176;-71
2022/03/17 03:22:17;;;;;;;1.23;1.23;;;10.20;99.90;9.40;102059.00;;;;5052026;28;20184;-71
2022/03/17 03:24:47;;;;;;;1.17;1.17;;;10.00;99.90;9.50;102073.00;;;;5051910;28;20229;-71
2022/03/17 03:27:13;;;;;;;3.67;3.00;;;10.00;99.90;9.50;102027.00;;;;5035360;28;20185;-71
2022/03/17 03:29:39;;;;;;;3.13;2.40;;;10.00;99.90;9.30;102037.00;;;;5035245;28;20188;-71
2022/03/17 03:32:06;;;;;;;1.33;1.23;;;9.90;99.90;9.40;102080.00;;;;5051399;28;20226;-71
2022/03/17 03:34:33;;;;;;;2.53;1.80;;;9.90;99.90;9.70;102061.00;;;;5051993;28;20176;-71
2022/03/17 03:37:32;;;;;;;0.70;0.70;;;10.00;99.90;9.60;102101.00;;;;5051639;28;20594;-71
2022/03/17 03:40:14;;;;;;;2.27;1.63;;;10.00;99.90;9.70;102102.00;;;;5047449;28;20198;-71
2022/03/17 03:42:42;;;;;;;2.40;1.27;;;10.00;99.90;9.70;102070.00;;;;5035310;28;20294;-71
2022/03/17 03:45:09;;;;;;;3.53;2.53;;;10.00;99.90;9.70;102103.00;;;;5034648;28;20175;-71
2022/03/17 03:47:35;;;;;;;0.20;0.20;;;10.10;99.90;9.50;102118.00;;;;5034831;28;20207;-71
2022/03/17 03:50:03;;;;;;;1.33;1.23;;;10.00;99.90;9.40;102134.00;;;;5051392;28;20269;-72
2022/03/17 03:52:31;;;;;;;1.03;1.03;;;9.90;99.90;9.50;102115.00;;;;5051629;28;20219;-71
2022/03/17 03:54:57;;;;;;;0.53;0.53;;;9.90;99.90;9.50;102138.00;;;;5034640;28;20204;-71
2022/03/17 03:57:24;;;;;;;1.83;1.73;;;9.90;99.90;9.60;102096.00;;;;5051325;28;20196;-71
2022/03/17 03:59:50;;;;;;;1.67;1.57;;;9.90;99.90;9.40;102148.00;;;;5050970;28;20294;-71
2022/03/17 04:02:16;;;;;;;2.97;2.70;;;9.90;99.90;9.30;102153.00;;;;5051105;28;20188;-71
2022/03/17 04:04:42;;;;;;;0.20;0.20;;;9.90;99.90;9.70;102157.00;;;;5051468;28;20253;-71
2022/03/17 04:07:11;;;;;;;0.40;0.40;;;9.90;99.90;9.90;102116.00;;;;5034461;28;20180;-71
2022/03/17 04:09:40;;;;;;;0.73;0.73;;;10.00;99.90;9.60;102176.00;;;;5034646;28;20198;-71
2022/03/17 04:12:09;;;;;;;0.83;0.83;;;10.00;99.90;9.60;102171.00;;;;5050864;28;20212;-71
2022/03/17 04:14:36;;;;;;;0.30;0.30;;;10.00;99.90;9.70;102187.00;;;;5050786;28;20175;-72
2022/03/17 04:17:02;;;;;;;0.40;0.40;;;10.10;99.90;9.90;102196.00;;;;5051294;28;20237;-71
2022/03/17 04:19:28;;;;;;;0.83;0.70;;;10.10;99.90;9.70;102165.00;;;;5035709;28;20179;-71
2022/03/17 04:21:55;;;;;;;0.63;0.60;;;10.10;99.90;9.20;102154.00;;;;5050739;28;20260;-71
2022/03/17 04:24:24;;;;;;;0.87;0.87;;;9.90;99.90;9.30;102180.00;;;;5051425;28;20596;-71
2022/03/17 04:26:50;;;;;;;0.50;0.50;;;9.80;99.90;9.50;102217.00;;;;5033777;28;20274;-71
2022/03/17 04:29:16;;;;;;;1.57;1.47;;;9.80;99.90;9.60;102227.00;;;;5050509;28;20183;-71
2022/03/17 04:31:43;;;;;;;1.33;1.23;;;9.80;99.90;9.30;102231.00;;;;5033918;28;20248;-71
2022/03/17 04:34:11;;;;;;;1.60;1.40;;;9.80;99.90;9.40;102226.00;;;;5034130;28;20212;-71
2022/03/17 04:36:38;;;;;;;1.73;1.53;;;9.80;99.90;9.50;102219.00;;;;5050716;28;20191;-71
2022/03/17 04:39:06;;;;;;;0.73;0.73;;;9.90;99.90;9.70;102171.00;;;;5050641;28;20213;-71
2022/03/17 04:41:32;;;;;;;0.70;0.70;;;10.00;99.90;9.40;102256.00;;;;5050003;28;20195;-71
2022/03/17 04:43:58;;;;;;;0.60;0.60;;;9.80;99.90;9.60;102231.00;;;;5050286;28;20184;-70
2022/03/17 04:46:24;;;;;;;1.80;1.23;;;9.90;99.90;9.90;102266.00;;;;5050370;28;20558;-71
2022/03/17 04:48:50;;;;;;;1.27;0.67;;;10.00;99.90;9.70;102262.00;;;;5050403;28;20180;-70
2022/03/17 04:51:16;;;;;;;0.70;0.70;;;10.00;99.90;9.50;102230.00;;;;5033513;28;20191;-71
2022/03/17 04:53:41;;;;;;;0.60;0.60;;;9.90;99.90;9.20;102277.00;;;;5033577;28;20186;-71
2022/03/17 04:56:14;;;;;;;1.53;0.83;;;9.80;99.90;9.20;102249.00;;;;5050099;28;20268;-71
2022/03/17 04:58:42;;;;;;;0.67;0.67;;;9.70;99.90;9.40;102255.00;;;;5033777;28;20183;-71
2022/03/17 05:01:11;;;;;;;0.30;0.30;;;9.70;99.90;9.40;102306.00;;;;5050179;28;20183;-71
2022/03/17 05:03:37;;;;;;;0.63;0.63;;;9.70;99.90;9.40;102314.00;;;;5050364;28;20179;-71
2022/03/17 05:06:04;;;;;;;0.37;0.37;;;9.70;99.90;9.60;102323.00;;;;5033435;28;20181;-71
2022/03/17 05:08:34;;;;;;;0.30;0.30;;;9.80;99.90;9.20;102321.00;;;;5032885;28;20310;-71
2022/03/17 05:11:02;;;;;;;0.30;0.30;;;9.60;99.90;9.20;102305.00;;;;5049455;28;20171;-71
2022/03/17 05:13:28;;;;;;;0.53;0.40;;;9.60;99.90;9.40;102332.00;;;;5033030;28;20196;-70
2022/03/17 05:15:54;;;;;;;2.47;2.37;;;9.60;99.90;9.50;102348.00;;;;5049815;28;20600;-71
2022/03/17 05:18:25;;;;;;;0.83;0.77;;;9.80;99.90;9.30;102353.00;;;;5034485;28;20171;-71
2022/03/17 05:20:51;;;;;;;0.87;0.87;;;9.80;99.90;9.60;102353.00;;;;5033128;28;20180;-70
2022/03/17 05:23:20;;;;;;;0.30;0.30;;;9.80;99.90;9.20;102360.00;;;;5033236;28;20210;-70
2022/03/17 05:25:47;;;;;;;0.37;0.37;;;9.70;99.90;9.30;102367.00;;;;5049699;28;20174;-70
2022/03/17 05:28:14;;;;;;;0.70;0.70;;;9.70;99.90;9.30;102366.00;;;;5049450;28;20180;-70
2022/03/17 05:30:42;;;;;;;0.73;0.73;;;9.70;99.90;9.30;102373.00;;;;5033165;28;20192;-70
2022/03/17 05:33:12;;;;;;;0.63;0.60;;;9.70;99.90;9.10;102395.00;;;;5049324;28;20211;-70
2022/03/17 05:35:40;;;;;;;0.40;0.40;;;9.60;99.90;9.20;102332.00;;;;5049614;28;20265;-70
2022/03/17 05:38:06;;;;;;;1.63;1.53;;;9.60;99.90;9.10;102394.00;;;;5032772;28;20695;-71
2022/03/17 05:40:32;;;;;;;0.30;0.30;;;9.50;99.90;9.20;102403.00;;;;5032440;28;20178;-70
2022/03/17 05:43:02;;;;;;;0.70;0.67;;;9.60;99.90;9.10;102410.00;;;;5032431;28;20269;-70
2022/03/17 05:45:29;;;;;;;0.63;0.63;;;9.50;99.90;9.20;102408.00;;;;5032936;28;20218;-70
2022/03/17 05:48:00;;;;;;;0.60;0.60;;;9.60;99.90;9.10;102410.00;;;;5049317;28;20179;-70
2022/03/17 05:50:34;;;;;;;0.30;0.30;;;9.60;99.90;9.30;102418.00;;;;5049261;28;20186;-70
2022/03/17 05:53:00;;;;;;;0.40;0.40;;;9.50;99.90;9.40;102426.00;;;;5032602;28;20210;-72
2022/03/17 05:55:27;;;;;;;0.30;0.30;;;9.60;99.90;9.30;102406.00;;;;5041463;28;20192;-72
2022/03/17 05:57:55;;;;;;;0.30;0.30;;;9.60;99.90;9.40;102416.00;;;;5012687;28;20270;-72
2022/03/17 06:00:24;;;;;;;1.70;1.60;;;9.70;99.90;9.50;102427.00;;;;4996617;28;20272;-72
2022/03/17 06:02:54;;;;;;;0.70;0.70;;;9.70;99.90;9.50;102428.00;;;;4996213;28;20213;-70
2022/03/17 06:05:23;;;;;;;0.63;0.47;;;9.80;99.90;9.20;102441.00;;;;4996721;28;20199;-70
2022/03/17 06:07:52;;;;;;;0.57;0.57;;;9.70;99.90;9.20;102431.00;;;;4996423;28;20183;-70
2022/03/17 06:10:32;;;;;;;0.30;0.30;;;9.60;99.90;9.10;102444.00;;;;5012769;28;20180;-70
2022/03/17 06:13:00;;;;;;;0.30;0.30;;;9.60;99.90;9.30;102451.00;;;;5013458;28;20556;-69
2022/03/17 06:15:27;;;;;;;0.90;0.90;;;9.60;99.90;9.30;102414.00;;;;4996485;28;20191;-70
2022/03/17 06:18:01;;;;;;;0.30;0.30;;;9.60;99.90;9.40;102461.00;;;;5012648;28;20182;-69
2022/03/17 06:20:35;;;;;;;1.03;1.03;;;9.60;99.90;9.30;102461.00;;;;5012492;28;20641;-70
2022/03/17 06:23:05;;;;;;;0.40;0.40;;;9.70;99.90;9.10;102305.00;;;;5012461;28;20196;-70
2022/03/17 06:25:33;;;;;;;1.23;0.83;;;9.70;99.90;9.50;102485.00;;;;4995934;28;20624;-70
2022/03/17 06:27:59;;;;;;;0.77;0.77;;;9.70;99.90;9.30;102466.00;;;;5012296;28;20673;-70
2022/03/17 06:30:34;;;;;;;0.67;0.67;;;9.60;99.90;9.00;102479.00;;;;4995991;28;20186;-70
2022/03/17 06:33:01;;;;;;;0.70;0.70;;;9.70;99.90;9.30;102478.00;;;;5012503;28;20206;-70
2022/03/17 06:35:30;;;;;;;0.20;0.20;;;9.60;99.90;9.60;102469.00;;;;4996153;28;20218;-70
2022/03/17 06:37:59;;;;;;;0.70;0.70;;;9.70;99.90;9.20;102483.00;;;;5011806;28;20184;-70
2022/03/17 06:40:26;;;;;;;0.30;0.30;;;9.70;99.90;8.80;102490.00;;;;4995903;28;20700;-70
2022/03/17 06:42:54;;;;;;;0.30;0.30;;;9.50;99.90;9.00;102449.00;;;;4996105;28;20203;-70
2022/03/17 06:45:20;;;;;;;0.93;0.93;;;9.50;99.90;8.90;102473.00;;;;5012401;28;20233;-70
2022/03/17 06:47:46;;;;;;;0.30;0.30;;;9.40;99.90;9.20;102507.00;;;;5013613;28;20185;-70
2022/03/17 06:50:14;;;;;;;0.73;0.67;;;9.50;99.90;8.60;102472.00;;;;4995379;28;20263;-70
2022/03/17 06:52:43;;;;;;;0.40;0.40;;;9.40;99.90;9.10;102528.00;;;;5012199;28;20192;-70
2022/03/17 06:55:10;;;;;;;0.20;0.20;;;9.50;99.90;9.20;102530.00;;;;5015922;28;20267;-70
2022/03/17 06:57:36;;;;;;;0.60;0.60;;;9.50;99.90;9.20;102491.00;;;;4999935;28;20184;-70
2022/03/17 07:00:14;;;;;;;4.37;1.20;;;9.60;99.90;8.90;102538.00;;;;5015886;28;20173;-70
2022/03/17 07:02:41;;;;;;;0.30;0.30;;;9.50;99.90;9.20;102552.00;;;;4999818;28;20187;-71
2022/03/17 07:05:10;;;;;;;4.20;4.00;;;9.50;99.90;9.40;102550.00;;;;5015882;28;20245;-71
2022/03/17 07:07:38;;;;;;;0.50;0.47;;;9.60;99.90;9.10;102555.00;;;;5015742;28;20216;-71
2022/03/17 07:10:06;;;;;;;0.70;0.70;;;9.60;99.90;8.90;102554.00;;;;5015738;28;20531;-71
2022/03/17 07:12:38;;;;;;;0.30;0.30;;;9.50;99.90;9.30;102519.00;;;;4999604;28;20308;-71
2022/03/17 07:15:05;;;;;;;0.30;0.30;;;9.50;99.90;9.20;102570.00;;;;4999839;28;20192;-71
2022/03/17 07:17:41;;;;;;;0.87;0.80;;;9.60;99.90;9.20;102536.00;;;;5016335;28;20187;-70
2022/03/17 07:20:14;;;;;;;0.80;0.80;;;9.60;99.90;9.20;102578.00;;;;5016793;28;20207;-70
2022/03/17 07:22:47;;;;;;;0.30;0.30;;;9.70;99.90;9.00;102588.00;;;;4999389;28;20180;-70
2022/03/17 07:25:13;;;;;;;0.30;0.30;;;9.50;99.90;9.10;102602.00;;;;4999706;28;20267;-70
2022/03/17 07:27:44;;;;;;;0.60;0.60;;;9.50;99.90;9.40;102594.00;;;;5015814;28;20212;-71
2022/03/17 07:30:18;;;;;;;0.30;0.30;;;9.70;99.90;8.90;102572.00;;;;5015146;28;20175;-70
2022/03/17 07:32:55;;;;;;;0.70;0.70;;;9.60;99.90;9.00;102601.00;;;;4999532;28;20298;-71
2022/03/17 07:35:35;;;;;;;0.50;0.50;;;9.50;99.90;8.90;102606.00;;;;5016169;28;20186;-71
2022/03/17 07:38:05;;;;;;;0.30;0.30;;;9.50;99.90;9.20;102565.00;;;;5008095;28;20183;-71
2022/03/17 07:40:48;;;;;;;0.30;0.30;;;9.60;99.90;9.50;102621.00;;;;5018783;28;20173;-71
2022/03/17 07:43:14;;;;;;;0.30;0.30;;;9.70;99.90;9.50;102620.00;;;;5000918;28;20200;-71
2022/03/17 07:45:42;;;;;;;0.30;0.30;;;9.70;99.90;9.80;102594.00;;;;5016603;28;20176;-71
2022/03/17 07:48:33;;;;;;;0.50;0.50;;;9.90;99.90;9.50;102643.00;;;;5017383;28;20175;-71
2022/03/17 07:51:01;;;;;;;0.30;0.30;;;9.90;99.90;9.40;102630.00;;;;4999602;28;20200;-71
2022/03/17 07:53:28;;;;;;;0.30;0.30;;;9.80;99.90;9.50;102650.00;;;;5017024;28;20262;-71
2022/03/17 07:55:57;;;;;;;0.30;0.30;;;9.90;99.90;9.40;102663.00;;;;4999794;28;20191;-70
2022/03/17 07:58:39;;;;;;;0.30;0.30;;;9.80;99.90;9.50;102625.00;;;;4998534;28;20567;-71
2022/03/17 08:01:05;;;;;;;0.30;0.30;;;9.80;99.90;9.60;102668.00;;;;5015122;28;20172;-71
2022/03/17 08:03:37;;;;;;;0.40;0.40;;;9.80;99.90;9.30;102672.00;;;;4998569;28;20617;-71
2022/03/17 08:06:13;;;;;;;0.20;0.20;;;9.70;99.90;9.00;102680.00;;;;5014375;28;20631;-71
2022/03/17 08:08:39;;;;;;;0.40;0.40;;;9.60;99.90;9.40;102697.00;;;;5015257;28;20174;-71
2022/03/17 08:11:05;;;;;;;0.30;0.30;;;9.70;99.90;9.70;102701.00;;;;4998229;28;20336;-71
2022/03/17 08:13:36;;;;;;;0.30;0.30;;;10.00;99.90;9.60;102708.00;;;;5015659;28;20686;-71
2022/03/17 08:16:02;;;;;;;0.30;0.30;;;9.90;99.90;10.00;102708.00;;;;5014654;28;20184;-70
2022/03/17 08:18:30;;;;;;;0.40;0.40;;;10.10;99.90;9.90;102724.00;;;;4998167;28;20194;-71
2022/03/17 08:20:56;;;;;;;0.63;0.63;;;10.20;99.90;9.60;102719.00;;;;4998688;28;20247;-71
2022/03/17 08:23:22;;;;;;;0.30;0.30;;;10.10;99.90;9.50;102722.00;;;;5015980;28;20224;-71
2022/03/17 08:25:52;;;;;;;2.40;1.03;;;9.90;99.90;9.90;102737.00;;;;5014904;28;20180;-71
2022/03/17 08:28:33;;;;;;;0.50;0.50;;;10.10;99.90;9.70;102739.00;;;;4998260;28;20226;-71
2022/03/17 08:31:24;;;;;;;0.30;0.30;;;10.10;99.90;9.40;102745.00;;;;5013872;28;20231;-71
2022/03/17 08:33:50;;;;;;;0.30;0.30;;;9.90;99.90;9.10;102707.00;;;;5014509;28;20197;-71
2022/03/17 08:36:21;;;;;;;0.30;0.30;;;9.70;99.90;9.60;102764.00;;;;5014316;28;20237;-71
2022/03/17 08:38:50;;;;;;;0.40;0.40;;;9.90;99.90;9.60;102775.00;;;;5014292;28;20199;-71
2022/03/17 08:41:16;;;;;;;0.30;0.30;;;10.00;99.90;9.90;102780.00;;;;4998236;28;20185;-71
2022/03/17 08:43:44;;;;;;;0.30;0.30;;;10.10;99.90;9.20;102773.00;;;;5015271;28;20266;-71
2022/03/17 08:51:44;;;;;;;0.40;0.40;;;10.20;99.90;9.90;102811.00;;;;5014054;28;20214;-71
2022/03/17 08:54:12;;;;;;;0.40;0.40;;;10.20;99.90;10.40;102819.00;;;;5014110;28;20176;-70
2022/03/17 08:56:38;;;;;;;0.30;0.30;;;10.40;99.90;10.30;102782.00;;;;5014004;28;20182;-70
2022/03/17 08:59:09;;;;;;;0.20;0.20;;;10.50;99.90;10.10;102836.00;;;;5013824;28;20547;-70
2022/03/17 09:01:38;;;;;;;0.30;0.30;;;10.40;99.90;10.00;102839.00;;;;5013831;28;20708;-71
2022/03/17 09:04:40;;;;;;;0.50;0.50;;;10.30;99.90;9.80;102840.00;;;;4997156;28;20191;-71
2022/03/17 09:07:05;;;;;;;0.30;0.30;;;10.20;99.90;9.90;102825.00;;;;4997356;28;20182;-71
2022/03/17 09:09:37;;;;;;;0.23;0.23;;;10.10;99.90;10.50;102859.00;;;;5013533;28;20545;-71
2022/03/17 09:12:07;;;;;;;0.87;0.40;;;10.40;99.90;10.70;102875.00;;;;4997007;28;20313;-71
2022/03/17 09:14:41;;;;;;;1.33;1.33;;;10.50;99.90;10.60;102865.00;;;;4997134;28;20208;-72
2022/03/17 09:17:10;;;;;;;0.30;0.30;;;10.60;99.90;10.70;102885.00;;;;4996281;28;20657;-71
2022/03/17 09:19:37;;;;;;;0.30;0.30;;;10.70;99.90;10.80;102888.00;;;;5013589;28;20187;-71
2022/03/17 09:22:07;;;;;;;0.30;0.30;;;10.80;99.90;10.30;102853.00;;;;5013260;28;20205;-71
2022/03/17 09:24:35;;;;;;;0.50;0.50;;;10.60;99.90;10.20;102888.00;;;;5013344;28;20182;-71
2022/03/17 09:27:01;;;;;;;0.30;0.30;;;10.60;99.90;10.50;102905.00;;;;5013255;28;20562;-71
2022/03/17 09:29:33;;;;;;;0.53;0.53;;;10.70;99.90;10.70;102931.00;;;;5013280;28;20293;-70
2022/03/17 09:32:00;;;;;;;0.20;0.20;;;10.70;99.90;10.30;102914.00;;;;5014179;28;20210;-71
2022/03/17 09:34:27;;;;;;;0.30;0.30;;;10.60;99.90;10.80;102885.00;;;;4997085;28;20284;-71
2022/03/17 09:36:53;;;;;;;0.30;0.30;;;10.80;99.90;11.00;102951.00;;;;4996865;28;20190;-70
2022/03/17 09:40:04;;;;;;;1.03;1.03;;;10.90;99.90;11.30;102925.00;;;;4996584;28;20191;-70
2022/03/17 09:42:35;;;;;;;1.37;1.27;;;11.20;99.90;11.30;102971.00;;;;5012908;28;20266;-71
2022/03/17 09:45:02;;;;;;;0.20;0.20;;;11.30;99.90;11.60;102973.00;;;;5014400;28;20245;-71
2022/03/17 09:47:33;;;;;;;0.20;0.20;;;11.40;99.90;11.60;102972.00;;;;4996197;28;20184;-70
2022/03/17 09:50:00;;;;;;;0.30;0.30;;;11.60;99.90;11.40;102978.00;;;;5012956;28;20545;-71
2022/03/17 09:52:31;;;;;;;0.20;0.20;;;11.50;99.90;11.70;102974.00;;;;4996689;28;20226;-71
2022/03/17 09:55:00;;;;;;;0.20;0.20;;;11.60;99.90;11.70;102976.00;;;;5012803;28;20558;-71
2022/03/17 09:57:58;;;;;;;0.37;0.37;;;11.70;99.90;11.90;102991.00;;;;5012948;28;20568;-71
2022/03/17 10:00:47;;;;;;;0.20;0.20;;;11.80;99.90;11.90;102997.00;;;;5013595;28;20173;-71
2022/03/17 10:03:10;;;;;;;0.30;0.30;;;11.90;99.90;11.90;102991.00;;;;5012534;28;20204;-70
2022/03/17 10:05:36;;;;;;;0.30;0.30;;;12.00;99.90;12.40;103000.00;;;;5012942;28;20188;-71
2022/03/17 10:08:02;;;;;;;0.20;0.20;;;12.10;99.90;12.80;103006.00;;;;5012650;28;20211;-71
2022/03/17 10:10:40;;;;;;;0.20;0.20;;;12.40;99.90;13.00;103013.00;;;;4996044;28;20186;-68
2022/03/17 10:13:18;;;;;;;0.20;0.20;;;12.60;99.90;13.30;103023.00;;;;5012218;28;20566;-68
2022/03/17 10:16:11;;;;;;;0.70;0.70;;;12.80;99.90;12.90;103021.00;;;;5012576;28;20204;-69
2022/03/17 10:18:37;;;;;;;0.33;0.33;;;12.70;99.90;12.10;103014.00;;;;4996055;28;20189;-69
2022/03/17 10:44:19;;;;;;;0.97;0.97;;;12.20;99.90;13.70;103073.00;;;;6319152;22;21053;-70
2022/03/17 10:47:22;;;;;;;0.40;0.40;;;13.30;99.90;13.30;103092.00;;;;6258591;22;20152;-70
2022/03/17 10:50:59;;;;;;;0.20;0.20;;;13.40;99.90;13.60;103080.00;;;;6253005;22;20254;-70
2022/03/17 10:54:20;;;;;;;0.30;0.30;;;13.20;99.90;13.70;103103.00;;;;6284326;22;20467;-70
2022/03/17 10:57:27;;;;;;;0.10;0.10;;;13.50;99.90;13.00;103101.00;;;;6241357;22;20157;-70
2022/03/17 11:00:23;;;;;;;0.10;0.10;;;13.30;99.90;13.90;103116.00;;;;6253673;22;20247;-70
2022/03/17 11:03:41;;;;;;;0.40;0.40;;;13.50;99.90;13.90;103128.00;;;;6285863;22;20141;-70
2022/03/17 11:06:50;;;;;;;0.77;0.77;;;13.70;99.90;14.00;103124.00;;;;6258579;22;20163;-70
2022/03/17 11:09:53;;;;;;;0.20;0.20;;;13.90;99.90;14.40;103069.00;;;;6233181;22;20159;-69
2022/03/17 11:12:59;;;;;;;0.93;0.93;;;14.10;99.90;14.60;103098.00;;;;6207569;22;20274;-70
2022/03/17 11:15:34;;;;;;;0.13;0.13;;;14.30;99.90;14.80;103104.00;;;;6258684;22;20156;-70
2022/03/17 11:18:18;;;;;;;0.40;0.40;;;14.40;99.90;14.50;103151.00;;;;6233690;22;20167;-69
2022/03/17 11:21:16;;;;;;;0.67;0.67;;;14.50;99.90;14.10;103117.00;;;;6258260;22;20141;-70
2022/03/17 11:24:26;;;;;;;0.20;0.20;;;14.10;99.90;14.10;103154.00;;;;6233009;22;20159;-70
2022/03/17 11:27:31;;;;;;;0.20;0.20;;;13.90;99.90;14.10;103162.00;;;;6251370;22;20249;-70
2022/03/17 11:30:36;;;;;;;0.60;0.60;;;14.10;99.90;13.80;103156.00;;;;6230338;22;20613;-71
2022/03/17 11:33:48;;;;;;;0.87;0.80;;;13.80;99.90;13.90;103163.00;;;;6256623;22;20188;-69
2022/03/17 11:37:16;;;;;;;0.90;0.80;;;13.70;99.90;14.20;103167.00;;;;6215567;22;20214;-70
2022/03/17 11:39:55;;;;;;;0.13;0.13;;;13.90;99.90;14.10;103174.00;;;;6285106;22;20536;-70
2022/03/17 11:42:41;;;;;;;0.50;0.50;;;14.10;99.90;13.50;103190.00;;;;6256879;22;20168;-71
2022/03/17 11:45:10;;;;;;;2.83;0.80;;;13.80;99.90;13.50;103177.00;;;;6225010;22;20374;-70
2022/03/17 11:47:38;;;;;;;0.20;0.20;;;13.40;99.90;13.70;103146.00;;;;6277700;22;20612;-69
2022/03/17 11:50:40;;;;;;;0.10;0.10;;;13.50;99.90;13.80;103205.00;;;;6250924;22;20215;-70